Time;durP1;ratioP1;P1;durP2;ratioP2;P2;SDS_P1;SDS_P2;PMS_P1;PMS_P2;Temp;Humidity;BMP_temperature;BMP_pressure;BME280_temperature;BME280_humidity;BME280_pressure;Samples;Min_cycle;Max_cycle;Signal;HPM_P1;HPM_P2
2023/05/10 00:01:46;;;;;;;26.25;16.05;;;14.90;99.90;;;;;;4996613;28;20050;-77
2023/05/10 00:04:12;;;;;;;28.92;16.10;;;14.80;99.90;;;;;;4979580;28;20114;-76
2023/05/10 00:06:38;;;;;;;24.10;14.98;;;14.70;99.90;;;;;;4996544;28;20136;-76
2023/05/10 00:09:03;;;;;;;30.13;17.20;;;14.60;99.90;;;;;;4996483;28;20426;-77
2023/05/10 00:11:29;;;;;;;28.67;15.43;;;14.70;99.90;;;;;;4996375;28;20056;-77
2023/05/10 00:13:55;;;;;;;24.38;14.55;;;14.80;99.90;;;;;;4996670;28;20176;-77
2023/05/10 00:16:20;;;;;;;30.33;16.88;;;14.90;99.90;;;;;;4996650;28;20046;-77
2023/05/10 00:18:46;;;;;;;26.35;15.90;;;15.00;99.90;;;;;;4996619;28;20045;-77
2023/05/10 00:21:12;;;;;;;21.20;14.38;;;14.90;99.90;;;;;;4996450;28;20039;-77
2023/05/10 00:23:38;;;;;;;25.90;15.18;;;15.00;99.90;;;;;;4979190;28;20089;-77
2023/05/10 00:26:04;;;;;;;23.25;14.52;;;15.10;99.90;;;;;;4979261;28;20046;-77
2023/05/10 00:28:30;;;;;;;26.70;15.27;;;15.20;99.90;;;;;;4998670;28;20035;-77
2023/05/10 00:30:55;;;;;;;29.00;15.93;;;15.30;99.90;;;;;;4999927;28;20204;-78
2023/05/10 00:33:21;;;;;;;32.53;16.67;;;15.30;99.90;;;;;;4999965;28;20078;-77
2023/05/10 00:35:47;;;;;;;31.05;17.13;;;15.30;99.90;;;;;;4999573;28;20077;-77
2023/05/10 00:38:13;;;;;;;31.08;16.10;;;15.40;99.90;;;;;;4999355;28;20069;-77
2023/05/10 00:40:38;;;;;;;34.78;17.73;;;15.40;99.90;;;;;;4999405;28;20086;-77
2023/05/10 00:43:04;;;;;;;24.02;14.63;;;15.40;99.90;;;;;;4999441;28;20141;-77
2023/05/10 00:45:36;;;;;;;31.02;17.42;;;15.10;99.90;;;;;;4999727;28;20332;-77
2023/05/10 00:48:02;;;;;;;24.63;14.75;;;15.20;99.90;;;;;;4999797;28;20074;-77
2023/05/10 00:50:28;;;;;;;25.98;15.73;;;15.10;99.90;;;;;;4999500;28;20105;-77
2023/05/10 00:52:55;;;;;;;23.15;15.55;;;15.10;99.90;;;;;;4999713;28;20081;-76
2023/05/10 00:55:21;;;;;;;23.92;14.70;;;15.10;99.90;;;;;;4999341;28;20046;-78
2023/05/10 00:57:47;;;;;;;26.00;14.55;;;15.00;99.90;;;;;;4999257;28;20453;-77
2023/05/10 01:00:17;;;;;;;31.73;15.43;;;15.00;99.90;;;;;;4999217;28;20045;-77
2023/05/10 01:02:46;;;;;;;27.70;15.25;;;15.00;99.90;;;;;;4999267;28;20489;-77
2023/05/10 01:05:12;;;;;;;24.00;15.57;;;14.80;99.90;;;;;;4999523;28;20296;-77
2023/05/10 01:07:39;;;;;;;27.35;14.95;;;14.70;99.90;;;;;;4981652;28;20184;-77
2023/05/10 01:10:06;;;;;;;33.35;16.27;;;14.80;99.90;;;;;;4999029;28;20034;-77
2023/05/10 01:12:33;;;;;;;31.15;15.60;;;15.10;99.90;;;;;;4999183;28;20057;-77
2023/05/10 01:15:00;;;;;;;23.00;13.93;;;15.10;99.90;;;;;;4999183;28;20038;-77
2023/05/10 01:17:26;;;;;;;32.38;16.23;;;15.10;99.90;;;;;;4999010;28;20042;-77
2023/05/10 01:19:52;;;;;;;28.73;15.77;;;15.20;99.90;;;;;;4998917;28;20045;-77
2023/05/10 01:22:44;;;;;;;25.98;15.20;;;15.00;99.90;;;;;;4998809;28;20327;-77
2023/05/10 01:25:49;;;;;;;29.08;15.45;;;15.10;99.90;;;;;;4998826;28;20468;-77
2023/05/10 01:28:33;;;;;;;19.88;13.07;;;15.20;99.90;;;;;;4999106;28;20042;-77
2023/05/10 01:31:13;;;;;;;21.58;13.55;;;15.00;99.90;;;;;;4998653;28;20450;-77
2023/05/10 01:33:47;;;;;;;21.38;13.57;;;15.20;99.90;;;;;;4998856;28;20042;-77
2023/05/10 01:36:27;;;;;;;17.88;13.02;;;15.00;99.90;;;;;;4998778;28;20042;-77
2023/05/10 01:38:58;;;;;;;26.58;15.32;;;14.90;99.90;;;;;;4997909;28;20435;-77
2023/05/10 01:42:00;;;;;;;27.15;14.93;;;15.00;99.90;;;;;;4998426;28;20050;-77
2023/05/10 01:44:48;;;;;;;17.15;12.45;;;15.00;99.90;;;;;;4981498;28;20050;-77
2023/05/10 01:47:19;;;;;;;17.98;12.00;;;15.10;99.90;;;;;;4998406;28;20046;-77
2023/05/10 01:49:50;;;;;;;24.13;14.20;;;15.10;99.90;;;;;;4998537;28;20034;-77
2023/05/10 01:52:21;;;;;;;18.58;12.07;;;15.20;99.90;;;;;;4998341;28;20042;-77
2023/05/10 01:54:55;;;;;;;28.38;14.82;;;15.10;99.90;;;;;;4998416;28;20324;-77
2023/05/10 01:57:24;;;;;;;30.90;15.02;;;15.20;99.90;;;;;;4998557;28;20046;-77
2023/05/10 01:59:51;;;;;;;18.23;13.25;;;15.20;99.90;;;;;;4998053;28;20427;-77
2023/05/10 02:02:20;;;;;;;27.85;16.00;;;15.10;99.90;;;;;;4998232;28;20038;-77
2023/05/10 02:04:47;;;;;;;33.53;16.55;;;14.80;99.90;;;;;;4998006;28;20042;-77
2023/05/10 02:07:14;;;;;;;36.63;17.92;;;14.40;99.90;;;;;;4998209;28;20041;-77
2023/05/10 02:09:43;;;;;;;26.80;16.08;;;14.60;99.90;;;;;;4997750;28;20053;-77
2023/05/10 02:12:12;;;;;;;27.00;15.38;;;14.60;99.90;;;;;;4998136;28;20378;-77
2023/05/10 02:14:39;;;;;;;32.67;18.13;;;14.70;99.90;;;;;;4997814;28;20042;-77
2023/05/10 02:17:08;;;;;;;48.17;19.40;;;14.90;99.90;;;;;;4997812;28;20328;-77
2023/05/10 02:19:36;;;;;;;29.05;16.33;;;14.80;99.90;;;;;;4997925;28;20124;-77
2023/05/10 02:22:03;;;;;;;29.17;17.02;;;14.90;99.90;;;;;;4997810;28;20043;-77
2023/05/10 02:24:30;;;;;;;36.08;17.83;;;14.70;99.90;;;;;;4997964;28;20046;-77
2023/05/10 02:26:57;;;;;;;41.53;17.00;;;14.40;99.90;;;;;;4997638;28;20041;-77
2023/05/10 02:29:25;;;;;;;32.92;17.92;;;14.60;99.90;;;;;;4997682;28;20392;-77
2023/05/10 02:31:53;;;;;;;24.00;15.15;;;14.70;99.90;;;;;;4997549;28;20476;-77
2023/05/10 02:34:24;;;;;;;28.48;16.67;;;14.60;99.90;;;;;;4997841;28;20385;-77
2023/05/10 02:36:51;;;;;;;29.08;16.88;;;14.60;99.90;;;;;;4997539;28;20100;-77
2023/05/10 02:39:19;;;;;;;25.45;14.50;;;14.30;99.90;;;;;;4997151;28;20446;-77
2023/05/10 02:41:46;;;;;;;26.67;15.52;;;14.00;99.90;;;;;;4979797;28;20339;-77
2023/05/10 02:44:15;;;;;;;34.17;16.90;;;13.90;99.90;;;;;;4997396;28;20073;-77
2023/05/10 02:46:41;;;;;;;29.98;15.95;;;13.80;99.90;;;;;;4997357;28;20039;-77
2023/05/10 02:49:07;;;;;;;30.73;16.80;;;13.70;99.90;;;;;;4997315;28;20046;-77
2023/05/10 02:51:37;;;;;;;38.63;16.95;;;13.90;99.90;;;;;;4997019;28;20053;-77
2023/05/10 02:54:11;;;;;;;39.05;17.80;;;13.90;99.90;;;;;;4997356;28;20053;-77
2023/05/10 02:56:42;;;;;;;23.58;14.13;;;14.20;99.90;;;;;;4997534;28;20188;-77
2023/05/10 02:59:08;;;;;;;23.98;14.65;;;14.50;99.90;;;;;;4997317;28;20046;-77
2023/05/10 03:01:34;;;;;;;30.95;16.73;;;14.70;99.90;;;;;;4997195;28;20046;-77
2023/05/10 03:04:00;;;;;;;21.20;14.07;;;14.60;99.90;;;;;;4997192;28;20042;-77
2023/05/10 03:06:26;;;;;;;26.25;16.60;;;14.70;99.90;;;;;;4997227;28;20050;-77
2023/05/10 03:08:51;;;;;;;34.08;18.15;;;14.80;99.90;;;;;;4997020;28;20031;-77
2023/05/10 03:11:47;;;;;;;23.83;15.00;;;14.70;99.90;;;;;;4997042;28;20081;-77
2023/05/10 03:14:31;;;;;;;23.73;14.98;;;14.70;99.90;;;;;;4997040;28;20046;-77
2023/05/10 03:17:10;;;;;;;39.97;18.50;;;14.70;99.90;;;;;;4996960;28;20050;-77
2023/05/10 03:19:42;;;;;;;38.40;18.80;;;14.80;99.90;;;;;;4996951;28;20495;-77
2023/05/10 03:22:10;;;;;;;44.17;20.30;;;14.70;99.90;;;;;;4997182;28;20042;-77
2023/05/10 03:24:38;;;;;;;36.13;18.83;;;14.80;99.90;;;;;;4996809;28;20050;-77
2023/05/10 03:27:05;;;;;;;34.50;17.73;;;14.70;99.90;;;;;;4997173;28;20320;-77
2023/05/10 03:29:32;;;;;;;50.95;20.40;;;14.80;99.90;;;;;;4996900;28;20042;-77
2023/05/10 03:32:01;;;;;;;36.35;18.35;;;14.90;99.90;;;;;;4996877;28;20097;-77
2023/05/10 03:34:30;;;;;;;49.70;20.08;;;14.70;99.90;;;;;;4979733;28;20358;-77
2023/05/10 03:36:55;;;;;;;40.33;20.25;;;14.70;99.90;;;;;;4996995;28;20046;-77
2023/05/10 03:39:21;;;;;;;61.75;21.80;;;14.70;99.90;;;;;;4979173;28;20046;-77
2023/05/10 03:41:47;;;;;;;44.25;20.38;;;14.80;99.90;;;;;;4996540;28;20058;-77
2023/05/10 03:44:13;;;;;;;52.95;22.83;;;14.70;99.90;;;;;;4996903;28;20343;-77
2023/05/10 03:46:38;;;;;;;38.20;19.17;;;14.80;99.90;;;;;;4996641;28;20049;-77
2023/05/10 03:49:04;;;;;;;57.42;23.13;;;14.80;99.90;;;;;;4979645;28;20118;-77
2023/05/10 03:51:30;;;;;;;55.50;22.83;;;14.90;99.90;;;;;;4996903;28;20049;-77
2023/05/10 03:53:56;;;;;;;62.50;24.13;;;14.80;99.90;;;;;;4996801;28;20042;-77
2023/05/10 03:56:22;;;;;;;49.25;22.45;;;14.80;99.90;;;;;;4979567;28;20367;-78
2023/05/10 03:58:47;;;;;;;52.25;21.10;;;14.50;99.90;;;;;;4996584;28;20053;-77
2023/05/10 04:01:13;;;;;;;66.82;23.77;;;14.60;99.90;;;;;;4997200;28;20386;-78
2023/05/10 04:03:39;;;;;;;67.40;24.17;;;14.80;99.90;;;;;;5000536;28;20079;-77
2023/05/10 04:06:05;;;;;;;56.40;23.10;;;14.80;99.90;;;;;;5000587;28;20065;-77
2023/05/10 04:08:31;;;;;;;84.80;26.48;;;14.70;99.90;;;;;;4982640;28;20050;-77
2023/05/10 04:11:10;;;;;;;54.40;23.33;;;14.80;99.90;;;;;;5000468;28;20096;-77
2023/05/10 04:13:37;;;;;;;60.10;23.45;;;14.60;99.90;;;;;;5000198;28;20050;-77
2023/05/10 04:16:03;;;;;;;81.25;25.77;;;14.50;99.90;;;;;;4999957;28;20444;-78
2023/05/10 04:18:28;;;;;;;72.60;25.83;;;14.30;99.90;;;;;;4993654;28;20518;-77
2023/05/10 04:20:54;;;;;;;86.05;26.60;;;14.30;99.90;;;;;;4998846;28;20113;-78
2023/05/10 04:23:20;;;;;;;71.50;25.27;;;14.10;99.90;;;;;;4999897;28;20415;-77
2023/05/10 04:25:45;;;;;;;73.35;25.17;;;14.00;99.90;;;;;;4999856;28;20310;-77
2023/05/10 04:28:11;;;;;;;85.55;26.65;;;13.90;99.90;;;;;;4999976;28;20328;-77
2023/05/10 04:30:37;;;;;;;73.30;25.80;;;14.10;99.90;;;;;;4982675;28;20042;-77
2023/05/10 04:33:03;;;;;;;56.67;22.52;;;13.90;99.90;;;;;;5000236;28;20121;-77
2023/05/10 04:35:29;;;;;;;75.45;26.38;;;13.80;99.90;;;;;;4999985;28;20046;-77
2023/05/10 04:37:55;;;;;;;63.28;24.05;;;13.70;99.90;;;;;;4999490;28;20037;-77
2023/05/10 04:40:20;;;;;;;55.50;21.98;;;13.70;99.90;;;;;;4999936;28;20114;-77
2023/05/10 04:42:46;;;;;;;66.63;24.00;;;13.80;99.90;;;;;;4999320;28;20324;-79
2023/05/10 04:45:12;;;;;;;52.65;21.05;;;13.80;99.90;;;;;;4999904;28;20053;-77
2023/05/10 04:47:38;;;;;;;54.58;22.15;;;13.60;99.90;;;;;;4982280;28;20046;-77
2023/05/10 04:50:04;;;;;;;42.13;19.17;;;13.50;99.90;;;;;;4999765;28;20046;-77
2023/05/10 04:52:30;;;;;;;47.88;20.10;;;13.40;99.90;;;;;;4999468;28;20042;-77
2023/05/10 04:54:56;;;;;;;43.83;17.65;;;13.50;99.90;;;;;;4966025;28;20348;-77
2023/05/10 04:57:21;;;;;;;45.90;17.65;;;13.40;99.90;;;;;;4999265;28;20097;-78
2023/05/10 04:59:47;;;;;;;29.35;13.93;;;13.50;99.90;;;;;;4999483;28;20038;-77
2023/05/10 05:02:13;;;;;;;34.90;14.55;;;13.40;99.90;;;;;;4999480;28;20039;-77
2023/05/10 05:04:38;;;;;;;28.15;12.82;;;13.50;99.90;;;;;;4982083;28;20450;-77
2023/05/10 05:07:04;;;;;;;16.17;9.68;;;13.50;99.90;;;;;;4999228;28;20407;-77
2023/05/10 05:09:31;;;;;;;17.23;9.80;;;13.50;99.90;;;;;;4998955;28;20340;-77
2023/05/10 05:11:57;;;;;;;19.27;10.07;;;13.50;99.90;;;;;;4999329;28;20114;-77
2023/05/10 05:14:24;;;;;;;19.77;10.23;;;13.60;99.90;;;;;;4998153;28;20038;-77
2023/05/10 05:16:51;;;;;;;16.10;9.48;;;13.70;99.90;;;;;;4998996;28;20458;-77
2023/05/10 05:19:17;;;;;;;12.75;8.18;;;13.60;99.90;;;;;;4999213;28;20053;-77
2023/05/10 05:21:43;;;;;;;19.92;9.93;;;13.50;99.90;;;;;;4999032;28;20046;-77
2023/05/10 05:24:09;;;;;;;17.65;10.15;;;13.60;99.90;;;;;;4981822;28;20038;-77
2023/05/10 05:26:36;;;;;;;12.48;8.48;;;13.60;99.90;;;;;;4998836;28;20046;-77
2023/05/10 05:29:02;;;;;;;15.15;8.60;;;13.50;99.90;;;;;;4999098;28;20068;-77
2023/05/10 05:31:28;;;;;;;13.73;8.45;;;13.60;99.90;;;;;;4998875;28;20050;-77
2023/05/10 05:33:54;;;;;;;18.42;9.98;;;13.60;99.90;;;;;;4998954;28;20035;-77
2023/05/10 05:36:20;;;;;;;17.20;9.40;;;13.50;99.90;;;;;;4998610;28;20439;-77
2023/05/10 05:38:45;;;;;;;22.80;11.13;;;13.40;99.90;;;;;;4981048;28;20085;-77
2023/05/10 05:41:11;;;;;;;18.33;9.77;;;13.40;99.90;;;;;;4998446;28;20084;-80
2023/05/10 05:43:36;;;;;;;16.13;9.75;;;13.40;99.90;;;;;;4998271;28;20069;-77
2023/05/10 05:46:02;;;;;;;16.90;9.13;;;13.50;99.90;;;;;;4981376;28;20034;-76
2023/05/10 05:48:29;;;;;;;15.48;8.52;;;13.50;99.90;;;;;;4998515;28;20110;-77
2023/05/10 05:50:56;;;;;;;17.50;9.15;;;13.60;99.90;;;;;;4998355;28;20042;-76
2023/05/10 05:53:22;;;;;;;19.15;9.68;;;13.50;99.90;;;;;;4998482;28;20053;-77
2023/05/10 05:55:55;;;;;;;18.15;9.85;;;13.50;99.90;;;;;;4998221;28;20046;-78
2023/05/10 05:58:21;;;;;;;15.75;8.93;;;13.60;99.90;;;;;;4998610;28;20312;-77
2023/05/10 06:00:47;;;;;;;18.23;9.10;;;13.50;99.90;;;;;;4981025;28;20369;-77
2023/05/10 06:03:13;;;;;;;18.13;9.80;;;13.50;99.90;;;;;;4998118;28;20034;-77
2023/05/10 06:05:38;;;;;;;18.67;9.68;;;13.60;99.90;;;;;;4998231;28;20424;-77
2023/05/10 06:08:04;;;;;;;22.85;10.95;;;13.50;99.90;;;;;;4997700;28;20035;-77
2023/05/10 06:10:30;;;;;;;22.75;11.18;;;13.50;99.90;;;;;;4980551;28;20049;-77
2023/05/10 06:12:56;;;;;;;22.75;11.05;;;13.50;99.90;;;;;;4980948;28;20042;-77
2023/05/10 06:15:21;;;;;;;25.50;10.57;;;13.50;99.90;;;;;;4997935;28;20113;-77
2023/05/10 06:17:49;;;;;;;24.42;9.77;;;13.60;99.90;;;;;;4998043;28;20050;-77
2023/05/10 06:20:15;;;;;;;17.40;8.85;;;13.50;99.90;;;;;;4997832;28;20046;-77
2023/05/10 06:22:41;;;;;;;24.58;10.45;;;13.50;99.90;;;;;;4997914;28;20054;-78
2023/05/10 06:25:07;;;;;;;13.57;7.78;;;13.50;99.90;;;;;;4996747;28;20069;-77
2023/05/10 06:27:33;;;;;;;13.95;7.07;;;13.60;99.90;;;;;;4997896;28;20038;-77
2023/05/10 06:29:59;;;;;;;13.52;7.03;;;13.60;99.90;;;;;;4997932;28;20042;-77
2023/05/10 06:32:25;;;;;;;14.80;6.40;;;13.60;99.90;;;;;;4997680;28;20049;-77
2023/05/10 06:34:51;;;;;;;14.10;6.97;;;13.70;99.90;;;;;;4997652;28;20038;-77
2023/05/10 06:37:16;;;;;;;13.75;7.45;;;13.90;99.90;;;;;;4980497;28;20046;-77
2023/05/10 06:39:42;;;;;;;18.58;7.50;;;13.70;99.90;;;;;;4997080;28;20046;-77
2023/05/10 06:42:08;;;;;;;13.73;6.63;;;13.50;99.90;;;;;;4997169;28;20102;-77
2023/05/10 06:44:33;;;;;;;19.55;7.97;;;13.50;99.90;;;;;;4980232;28;20108;-76
2023/05/10 06:46:59;;;;;;;23.77;9.05;;;13.50;99.90;;;;;;4997674;28;20038;-77
2023/05/10 06:49:25;;;;;;;26.08;9.98;;;13.60;99.90;;;;;;4997459;28;20309;-77
2023/05/10 06:51:50;;;;;;;23.85;10.27;;;13.50;99.90;;;;;;4997578;28;20049;-76
2023/05/10 06:54:16;;;;;;;22.85;10.77;;;13.40;99.90;;;;;;4997301;28;20351;-76
2023/05/10 06:56:42;;;;;;;33.38;13.63;;;13.40;99.90;;;;;;4997531;28;20038;-76
2023/05/10 06:59:07;;;;;;;26.48;12.52;;;13.40;99.90;;;;;;4980145;28;20093;-76
2023/05/10 07:01:33;;;;;;;42.97;15.10;;;13.60;99.90;;;;;;4997177;28;20457;-76
2023/05/10 07:03:59;;;;;;;48.03;16.33;;;13.60;99.90;;;;;;4980003;28;20164;-77
2023/05/10 07:06:24;;;;;;;44.80;16.15;;;13.70;99.90;;;;;;4963838;28;20078;-76
2023/05/10 07:08:50;;;;;;;60.22;18.48;;;13.70;99.90;;;;;;4996609;28;20050;-77
2023/05/10 07:11:16;;;;;;;31.67;13.15;;;13.70;99.90;;;;;;4997386;28;20052;-76
2023/05/10 07:13:43;;;;;;;25.38;10.25;;;13.80;99.90;;;;;;4997198;28;20115;-76
2023/05/10 07:16:09;;;;;;;17.35;8.38;;;13.80;99.90;;;;;;4996910;28;20531;-76
2023/05/10 07:18:35;;;;;;;16.35;7.50;;;13.80;99.90;;;;;;4997155;28;20121;-76
2023/05/10 07:21:01;;;;;;;13.23;6.43;;;13.70;99.90;;;;;;4996982;28;20085;-77
2023/05/10 07:23:27;;;;;;;17.50;7.60;;;13.70;99.90;;;;;;4997022;28;20078;-74
2023/05/10 07:25:53;;;;;;;9.43;5.38;;;13.70;99.90;;;;;;4979653;28;20148;-75
2023/05/10 07:28:19;;;;;;;9.50;5.50;;;13.60;99.90;;;;;;4996877;28;20045;-75
2023/05/10 07:30:46;;;;;;;13.50;6.20;;;13.70;99.90;;;;;;4996989;28;20034;-79
2023/05/10 07:33:13;;;;;;;11.18;6.22;;;13.80;99.90;;;;;;4998969;28;20400;-83
2023/05/10 07:35:39;;;;;;;9.02;5.25;;;13.80;99.90;;;;;;4996749;28;20089;-73
2023/05/10 07:38:05;;;;;;;9.63;5.60;;;13.90;99.90;;;;;;5000277;28;20082;-81
2023/05/10 07:40:31;;;;;;;12.13;6.18;;;13.90;99.90;;;;;;5000998;28;20046;-78
2023/05/10 07:42:57;;;;;;;11.05;6.60;;;14.00;99.90;;;;;;5000592;28;20054;-77
2023/05/10 07:45:23;;;;;;;10.13;6.15;;;14.00;99.90;;;;;;5000927;28;20046;-76
2023/05/10 07:47:49;;;;;;;11.88;6.60;;;14.00;99.90;;;;;;5000623;28;20424;-74
2023/05/10 07:50:15;;;;;;;11.82;7.00;;;14.00;99.90;;;;;;5000876;28;20093;-74
2023/05/10 07:52:41;;;;;;;11.07;7.00;;;14.10;99.90;;;;;;5000500;28;20067;-74
2023/05/10 07:55:07;;;;;;;10.32;6.90;;;14.10;99.90;;;;;;4983623;28;20046;-74
2023/05/10 07:57:34;;;;;;;11.02;7.78;;;14.10;99.90;;;;;;5000442;28;20072;-74
2023/05/10 08:00:00;;;;;;;10.57;6.93;;;14.20;99.90;;;;;;5000681;28;20050;-74
2023/05/10 08:02:25;;;;;;;10.50;7.05;;;14.10;99.90;;;;;;5000296;28;20043;-73
2023/05/10 08:04:51;;;;;;;8.45;6.30;;;14.10;99.90;;;;;;4983032;28;20049;-73
2023/05/10 08:07:17;;;;;;;11.63;8.15;;;14.00;99.90;;;;;;5000200;28;20030;-76
2023/05/10 08:09:43;;;;;;;9.35;6.60;;;14.00;99.90;;;;;;5002106;28;20045;-75
2023/05/10 08:12:08;;;;;;;11.07;7.50;;;13.90;99.90;;;;;;4967320;28;20054;-74
2023/05/10 08:14:36;;;;;;;11.20;7.78;;;13.80;99.90;;;;;;5000214;28;20044;-74
2023/05/10 08:17:03;;;;;;;10.18;6.88;;;13.80;99.90;;;;;;5000315;28;20412;-74
2023/05/10 08:19:29;;;;;;;10.85;6.80;;;13.90;99.90;;;;;;5000071;28;20035;-74
2023/05/10 08:21:55;;;;;;;12.55;8.80;;;14.10;99.90;;;;;;4999959;28;20050;-75
2023/05/10 08:24:21;;;;;;;9.57;6.75;;;14.20;99.90;;;;;;5000298;28;20339;-73
2023/05/10 08:26:47;;;;;;;10.50;7.30;;;14.20;99.90;;;;;;4999889;28;20125;-72
2023/05/10 08:29:14;;;;;;;8.90;6.63;;;14.30;99.90;;;;;;5000001;28;20125;-73
2023/05/10 08:31:39;;;;;;;12.98;8.25;;;14.40;99.90;;;;;;4999869;28;20077;-73
2023/05/10 08:34:05;;;;;;;9.18;6.70;;;14.30;99.90;;;;;;4999942;28;20050;-73
2023/05/10 08:36:31;;;;;;;11.43;7.15;;;14.10;99.90;;;;;;4999561;28;20431;-72
2023/05/10 08:38:57;;;;;;;13.45;8.07;;;14.00;99.90;;;;;;4982157;28;20117;-72
2023/05/10 08:41:25;;;;;;;11.55;7.65;;;14.00;99.90;;;;;;4999597;28;20354;-72
2023/05/10 08:43:53;;;;;;;9.90;7.55;;;14.10;99.90;;;;;;4999469;28;20059;-72
2023/05/10 08:46:20;;;;;;;10.23;7.05;;;14.20;99.90;;;;;;4999554;28;20126;-72
2023/05/10 08:48:48;;;;;;;9.95;6.30;;;14.30;99.90;;;;;;4998642;28;20410;-72
2023/05/10 08:51:16;;;;;;;10.00;6.47;;;14.20;99.90;;;;;;4999419;28;20336;-72
2023/05/10 08:53:42;;;;;;;8.95;7.03;;;14.20;99.90;;;;;;4999424;28;20113;-71
2023/05/10 08:56:08;;;;;;;9.35;6.90;;;14.20;99.90;;;;;;4999453;28;20136;-71
2023/05/10 08:58:33;;;;;;;10.88;7.13;;;14.20;99.90;;;;;;4999351;28;20046;-70
2023/05/10 09:01:00;;;;;;;12.95;7.80;;;14.20;99.90;;;;;;4999288;28;20045;-71
2023/05/10 09:03:26;;;;;;;12.25;8.25;;;14.30;99.90;;;;;;4999028;28;20478;-72
2023/05/10 09:05:52;;;;;;;13.27;8.85;;;14.40;99.90;;;;;;4999341;28;20038;-73
2023/05/10 09:08:18;;;;;;;11.48;8.55;;;14.40;99.90;;;;;;4998779;28;20045;-73
2023/05/10 09:10:47;;;;;;;13.35;8.13;;;14.50;99.90;;;;;;4999268;28;20038;-74
2023/05/10 09:13:15;;;;;;;12.65;8.80;;;14.60;99.90;;;;;;4999175;28;20125;-73
2023/05/10 09:15:41;;;;;;;16.52;9.25;;;14.60;99.90;;;;;;4999036;28;20042;-72
2023/05/10 09:18:06;;;;;;;19.95;10.10;;;14.50;99.90;;;;;;4999209;28;20129;-70
2023/05/10 09:20:32;;;;;;;14.05;9.18;;;14.60;99.90;;;;;;4998912;28;20125;-72
2023/05/10 09:22:58;;;;;;;15.00;9.63;;;14.60;99.90;;;;;;4999076;28;20088;-73
2023/05/10 09:25:23;;;;;;;15.75;10.00;;;14.70;99.90;;;;;;4999179;28;20361;-71
2023/05/10 09:27:49;;;;;;;17.77;11.45;;;14.70;99.90;;;;;;4998913;28;20035;-72
2023/05/10 09:30:33;;;;;;;16.73;10.05;;;14.70;99.90;;;;;;4998867;28;20094;-70
2023/05/10 09:33:00;;;;;;;13.50;9.48;;;14.60;99.90;;;;;;4998682;28;20334;-72
2023/05/10 09:35:27;;;;;;;14.45;9.57;;;14.80;99.90;;;;;;4998764;28;20461;-72
2023/05/10 09:37:54;;;;;;;12.27;9.00;;;14.70;99.90;;;;;;4998901;28;20049;-72
2023/05/10 09:40:22;;;;;;;14.70;9.15;;;14.80;99.90;;;;;;4998299;28;20042;-72
2023/05/10 09:42:57;;;;;;;16.73;9.65;;;14.80;99.90;;;;;;4998314;28;20399;-72
2023/05/10 09:45:24;;;;;;;13.55;8.35;;;14.90;99.90;;;;;;4998785;28;20046;-71
2023/05/10 09:47:50;;;;;;;13.52;8.02;;;15.10;99.90;;;;;;4998595;28;20062;-71
2023/05/10 09:50:16;;;;;;;9.60;7.25;;;15.10;99.90;;;;;;4998545;28;20378;-71
2023/05/10 09:52:49;;;;;;;14.77;8.38;;;15.20;99.90;;;;;;4998479;28;20046;-71
2023/05/10 09:55:15;;;;;;;13.13;7.60;;;15.20;99.90;;;;;;4998169;28;20117;-72
2023/05/10 09:57:41;;;;;;;13.35;8.32;;;15.30;99.90;;;;;;4998151;28;20046;-72
2023/05/10 10:00:09;;;;;;;13.90;8.00;;;15.40;99.90;;;;;;4998060;28;20042;-71
2023/05/10 10:02:36;;;;;;;11.63;7.55;;;15.20;99.90;;;;;;4998171;28;20458;-70
2023/05/10 10:05:05;;;;;;;14.35;8.55;;;15.20;99.90;;;;;;4998336;28;20043;-70
2023/05/10 10:07:32;;;;;;;14.93;8.75;;;15.30;99.90;;;;;;4998390;28;20062;-71
2023/05/10 10:09:59;;;;;;;13.93;9.30;;;15.40;99.90;;;;;;4997753;28;20042;-71
2023/05/10 10:12:25;;;;;;;13.07;9.18;;;15.50;99.90;;;;;;4998197;28;20122;-71
2023/05/10 10:14:52;;;;;;;15.52;9.40;;;15.70;99.90;;;;;;4997448;28;20038;-71
2023/05/10 10:17:19;;;;;;;13.48;8.30;;;15.80;99.90;;;;;;4998087;28;20081;-70
2023/05/10 10:19:46;;;;;;;12.93;8.77;;;15.70;99.90;;;;;;4980790;28;20054;-70
2023/05/10 10:22:12;;;;;;;18.75;8.88;;;15.60;99.90;;;;;;4997617;28;20431;-71
2023/05/10 10:24:40;;;;;;;17.23;9.05;;;15.60;99.90;;;;;;4997949;28;20089;-71
2023/05/10 10:27:32;;;;;;;18.17;9.43;;;15.50;99.90;;;;;;4997658;28;20086;-72
2023/05/10 10:30:06;;;;;;;13.60;9.05;;;15.40;99.90;;;;;;4991252;28;20043;-74
2023/05/10 10:33:03;;;;;;;16.67;10.55;;;15.20;99.90;;;;;;4985578;28;20093;-74
2023/05/10 10:35:32;;;;;;;16.67;9.82;;;15.10;99.90;;;;;;4990068;28;20053;-73
2023/05/10 10:37:58;;;;;;;19.00;10.65;;;15.10;99.90;;;;;;4995213;28;20042;-75
2023/05/10 10:40:33;;;;;;;14.02;9.00;;;15.40;99.90;;;;;;4995782;28;20049;-73
2023/05/10 10:43:23;;;;;;;13.68;8.27;;;15.20;99.90;;;;;;4997352;28;20046;-74
2023/05/10 10:46:14;;;;;;;12.23;7.70;;;15.50;99.90;;;;;;4997711;28;20042;-75
2023/05/10 10:49:09;;;;;;;8.85;6.40;;;15.70;99.90;;;;;;4997471;28;20339;-74
2023/05/10 10:51:38;;;;;;;13.07;7.55;;;15.90;99.90;;;;;;4984964;28;20431;-74
2023/05/10 10:54:11;;;;;;;9.90;6.75;;;15.90;99.90;;;;;;4997196;28;20038;-74
2023/05/10 10:56:37;;;;;;;12.23;7.70;;;15.70;99.90;;;;;;4997381;28;20046;-73
2023/05/10 10:59:03;;;;;;;11.98;7.10;;;15.70;99.90;;;;;;4996426;28;20038;-73
2023/05/10 11:01:34;;;;;;;9.23;6.30;;;15.70;99.90;;;;;;5000294;28;20045;-71
2023/05/10 11:04:00;;;;;;;12.20;7.60;;;15.60;99.90;;;;;;4986871;28;20118;-71
2023/05/10 11:06:33;;;;;;;9.43;6.68;;;15.70;99.90;;;;;;4991721;28;20121;-72
2023/05/10 11:09:06;;;;;;;10.82;7.82;;;15.60;99.90;;;;;;4996212;28;20070;-72
2023/05/10 11:11:32;;;;;;;10.77;7.15;;;15.70;99.90;;;;;;4996558;28;20031;-72
2023/05/10 11:14:04;;;;;;;12.10;8.30;;;15.80;99.90;;;;;;4997060;28;20402;-72
2023/05/10 11:16:41;;;;;;;10.35;7.43;;;16.10;99.90;;;;;;4997141;28;20126;-72
2023/05/10 11:19:16;;;;;;;12.13;7.97;;;16.30;99.90;;;;;;4979596;28;20081;-73
2023/05/10 11:22:03;;;;;;;11.07;7.40;;;16.40;99.90;;;;;;4990251;28;20031;-72
2023/05/10 11:24:29;;;;;;;10.38;7.35;;;16.60;99.90;;;;;;4977515;28;20339;-72
2023/05/10 11:26:56;;;;;;;11.20;8.02;;;16.50;99.90;;;;;;4986681;28;20039;-72
2023/05/10 11:29:22;;;;;;;9.95;7.10;;;16.50;99.90;;;;;;4997048;28;20108;-72
2023/05/10 11:31:49;;;;;;;10.60;7.55;;;16.50;99.90;;;;;;4996577;28;20053;-72
2023/05/10 11:34:38;;;;;;;10.13;7.68;;;16.40;99.90;;;;;;4996601;28;20343;-73
2023/05/10 11:37:03;;;;;;;12.63;7.70;;;16.40;99.90;;;;;;4996568;28;20113;-72
2023/05/10 11:39:33;;;;;;;11.10;7.63;;;16.30;99.90;;;;;;4996229;28;20500;-72
2023/05/10 11:41:59;;;;;;;11.13;7.22;;;16.30;99.90;;;;;;4975278;28;20411;-73
2023/05/10 11:44:32;;;;;;;12.55;7.63;;;16.20;99.90;;;;;;4959476;28;20089;-72
2023/05/10 11:46:59;;;;;;;10.38;7.43;;;16.10;99.90;;;;;;4977464;28;20428;-72
2023/05/10 11:49:26;;;;;;;10.68;7.00;;;16.00;99.90;;;;;;4977440;28;20042;-73
2023/05/10 11:51:51;;;;;;;15.02;8.23;;;16.00;99.90;;;;;;4977578;28;20069;-70
2023/05/10 11:54:17;;;;;;;12.93;8.32;;;16.20;99.90;;;;;;4980160;28;20431;-70
2023/05/10 11:56:43;;;;;;;13.25;8.23;;;16.00;99.90;;;;;;4989268;28;20435;-72
2023/05/10 11:59:08;;;;;;;16.10;9.13;;;15.80;99.90;;;;;;4996429;28;20376;-73
2023/05/10 12:01:35;;;;;;;16.25;9.57;;;15.90;99.90;;;;;;4977141;28;20169;-73
2023/05/10 12:04:01;;;;;;;14.23;8.98;;;16.00;99.90;;;;;;4977148;28;20047;-72
2023/05/10 12:06:29;;;;;;;14.30;9.00;;;16.10;99.90;;;;;;4977248;28;20066;-72
2023/05/10 12:08:55;;;;;;;14.45;8.13;;;16.10;99.90;;;;;;4982274;28;20039;-72
2023/05/10 12:11:25;;;;;;;15.90;9.25;;;16.40;99.90;;;;;;4994637;28;20049;-72
2023/05/10 12:13:51;;;;;;;17.13;8.93;;;16.40;99.90;;;;;;4996872;28;20042;-72
2023/05/10 12:16:19;;;;;;;12.75;7.82;;;16.30;99.90;;;;;;4995541;28;20090;-72
2023/05/10 12:18:48;;;;;;;12.60;7.45;;;16.30;99.90;;;;;;4996461;28;20082;-73
2023/05/10 12:21:15;;;;;;;11.70;8.27;;;16.40;99.90;;;;;;4996362;28;20042;-72
2023/05/10 12:23:41;;;;;;;12.82;8.23;;;16.30;99.90;;;;;;4995732;28;20038;-72
2023/05/10 12:26:10;;;;;;;13.90;8.98;;;16.50;99.90;;;;;;4996867;28;20368;-75
2023/05/10 12:28:35;;;;;;;12.32;8.00;;;16.50;99.90;;;;;;4999913;28;20129;-76
2023/05/10 12:31:02;;;;;;;15.80;8.50;;;16.60;99.90;;;;;;4986869;28;20479;-75
2023/05/10 12:33:38;;;;;;;13.25;7.25;;;16.70;99.90;;;;;;4980140;28;20038;-75
2023/05/10 12:36:05;;;;;;;10.95;7.15;;;16.60;99.90;;;;;;4980766;28;20353;-74
2023/05/10 12:38:37;;;;;;;11.00;7.00;;;16.80;99.90;;;;;;4979687;28;20038;-75